createdAt,value
2022-07-25T00:03:18.576Z,54.31
2022-07-25T00:13:48.043Z,54.51
2022-07-25T00:24:16.886Z,54.39
2022-07-25T00:34:45.783Z,54.23
2022-07-25T00:45:15.039Z,54.81
2022-07-25T00:55:43.988Z,55.20
2022-07-25T01:06:13.564Z,55.40
2022-07-25T01:16:42.592Z,55.32
2022-07-25T01:27:17.516Z,55.25
2022-07-25T01:37:46.540Z,55.05
2022-07-25T01:48:15.487Z,55.24
2022-07-25T01:58:45.803Z,55.44
2022-07-25T02:09:14.707Z,55.47
2022-07-25T02:19:43.826Z,55.34
2022-07-25T02:30:13.969Z,55.64
2022-07-25T02:40:42.916Z,55.59
2022-07-25T02:51:11.974Z,55.52
2022-07-25T03:01:40.954Z,55.47
2022-07-25T03:12:10.188Z,55.67
2022-07-25T03:22:40.676Z,55.79
2022-07-25T03:33:13.289Z,55.80
2022-07-25T03:43:42.453Z,55.64
2022-07-25T03:54:14.092Z,56.04
2022-07-25T04:04:43.025Z,56.12
2022-07-25T04:15:12.979Z,56.43
2022-07-25T04:25:42.059Z,57.03
2022-07-25T04:36:11.650Z,57.47
2022-07-25T04:46:41.892Z,58.63
2022-07-25T04:57:10.998Z,59.58
2022-07-25T05:07:40.009Z,60.20
2022-07-25T05:18:08.893Z,59.29
2022-07-25T05:28:42.471Z,57.51
2022-07-25T05:39:12.503Z,56.18
2022-07-25T05:49:41.521Z,55.56
2022-07-25T06:00:12.560Z,54.56
2022-07-25T06:10:41.579Z,52.49
2022-07-25T06:21:12.282Z,52.18
2022-07-25T06:31:41.550Z,51.81
2022-07-25T06:42:15.235Z,49.44
2022-07-25T06:52:45.738Z,47.50
2022-07-25T07:03:14.862Z,46.13
2022-07-25T07:13:43.833Z,45.41
2022-07-25T07:24:23.508Z,45.09
2022-07-25T07:34:56.028Z,44.07
2022-07-25T07:45:26.809Z,43.29
2022-07-25T07:55:56.675Z,42.21
2022-07-25T08:06:25.558Z,42.48
2022-07-25T08:16:57.323Z,41.55
2022-07-25T08:27:26.834Z,40.36
2022-07-25T08:37:56.772Z,38.44
2022-07-25T08:48:27.861Z,36.52
2022-07-25T08:58:59.261Z,37.04
2022-07-25T09:09:36.582Z,36.27
2022-07-25T09:20:06.856Z,35.52
2022-07-25T09:30:36.216Z,34.22
2022-07-25T09:41:06.547Z,34.95
2022-07-25T09:51:36.160Z,34.04
2022-07-25T10:02:11.616Z,33.30
2022-07-25T10:12:39.205Z,34.02
2022-07-25T10:23:18.361Z,33.56
2022-07-25T10:33:49.239Z,32.78
2022-07-25T10:44:18.670Z,32.59
2022-07-25T10:54:57.160Z,31.79
2022-07-25T11:05:26.409Z,30.75
2022-07-25T11:16:00.190Z,31.32
2022-07-25T11:26:29.103Z,30.22
2022-07-25T11:36:59.741Z,30.85
2022-07-25T11:47:31.125Z,30.81
2022-07-25T11:58:03.488Z,29.98
2022-07-25T12:08:41.776Z,29.88
2022-07-25T12:19:21.978Z,29.39
2022-07-25T12:29:52.540Z,30.21
2022-07-25T12:40:22.362Z,29.72
2022-07-25T12:50:51.324Z,29.69
2022-07-25T13:01:20.375Z,28.30
2022-07-25T13:11:49.292Z,28.25
2022-07-25T13:22:18.141Z,27.92
2022-07-25T13:32:47.042Z,27.20
2022-07-25T13:43:16.662Z,28.56
2022-07-25T13:53:46.383Z,28.40
2022-07-25T14:04:15.314Z,28.38
2022-07-25T14:14:44.283Z,28.12
2022-07-25T14:25:14.102Z,28.37
2022-07-25T14:35:43.023Z,27.97
2022-07-25T14:46:12.483Z,28.72
2022-07-25T14:56:41.739Z,28.64
2022-07-25T15:07:11.034Z,28.42
2022-07-25T15:17:40.030Z,28.40
2022-07-25T15:28:09.234Z,29.24
2022-07-25T15:38:39.421Z,30.19
2022-07-25T15:49:08.639Z,30.15
2022-07-25T15:59:37.852Z,30.69
2022-07-25T16:10:07.842Z,31.22
2022-07-25T16:20:36.945Z,32.17
2022-07-25T16:31:06.082Z,32.04
2022-07-25T16:41:34.981Z,32.76
2022-07-25T16:52:04.003Z,33.33
2022-07-25T17:02:32.896Z,33.57
2022-07-25T17:13:01.780Z,34.25
2022-07-25T17:23:30.788Z,34.54
2022-07-25T17:33:59.629Z,34.90
2022-07-25T17:44:28.473Z,35.63
2022-07-25T17:54:58.869Z,35.95
2022-07-25T18:05:28.429Z,35.94
2022-07-25T18:15:57.442Z,37.03
2022-07-25T18:26:28.658Z,37.78
2022-07-25T18:36:57.558Z,37.64
2022-07-25T18:47:32.140Z,38.18
2022-07-25T18:58:02.182Z,38.06
2022-07-25T19:08:31.330Z,38.44
2022-07-25T19:19:00.912Z,38.71
2022-07-25T19:29:29.965Z,39.35
2022-07-25T19:39:59.077Z,38.84
2022-07-25T19:50:28.294Z,38.90
2022-07-25T20:00:57.272Z,39.12
2022-07-25T20:11:26.232Z,39.32
2022-07-25T20:21:56.311Z,39.98
2022-07-25T20:32:25.462Z,40.43
2022-07-25T20:42:55.971Z,41.36
2022-07-25T20:53:25.314Z,41.65
2022-07-25T21:03:54.274Z,42.62
2022-07-25T21:14:23.572Z,43.43
2022-07-25T21:24:52.760Z,44.13
2022-07-25T21:35:21.590Z,44.93
2022-07-25T21:45:50.607Z,45.61
2022-07-25T21:56:19.788Z,46.19
2022-07-25T22:06:48.693Z,46.64
2022-07-25T22:17:17.669Z,47.46
2022-07-25T22:27:46.600Z,47.64
2022-07-25T22:38:15.554Z,47.91
2022-07-25T22:48:44.605Z,48.39
2022-07-25T22:59:13.648Z,48.82
2022-07-25T23:09:42.660Z,49.42
2022-07-25T23:20:13.721Z,49.60
2022-07-25T23:30:42.648Z,50.11
2022-07-25T23:41:11.493Z,50.69
2022-07-25T23:51:40.665Z,51.24
